sensor_id;sensor_type;location;lat;lon;timestamp;pressure;altitude;pressure_sealevel;temperature;humidity
24160;BME280;62385;41.594;23.808;2023-03-18T00:02:16;95714.44;;;7.05;49.25
24160;BME280;62385;41.594;23.808;2023-03-18T00:04:43;95713.06;;;7.10;48.75
24160;BME280;62385;41.594;23.808;2023-03-18T00:07:09;95717.97;;;6.95;49.63
24160;BME280;62385;41.594;23.808;2023-03-18T00:09:35;95716.41;;;7.03;49.47
24160;BME280;62385;41.594;23.808;2023-03-18T00:12:01;95717.09;;;7.05;49.78
24160;BME280;62385;41.594;23.808;2023-03-18T00:14:27;95714.09;;;6.90;49.83
24160;BME280;62385;41.594;23.808;2023-03-18T00:16:52;95715.25;;;6.59;50.13
24160;BME280;62385;41.594;23.808;2023-03-18T00:19:18;95702.88;;;6.59;50.28
24160;BME280;62385;41.594;23.808;2023-03-18T00:21:44;95711.97;;;6.37;50.40
24160;BME280;62385;41.594;23.808;2023-03-18T00:24:10;95709.88;;;6.31;50.52
24160;BME280;62385;41.594;23.808;2023-03-18T00:26:36;95711.66;;;6.40;50.51
24160;BME280;62385;41.594;23.808;2023-03-18T00:29:03;95713.97;;;6.72;49.19
24160;BME280;62385;41.594;23.808;2023-03-18T00:31:28;95709.03;;;6.31;50.28
24160;BME280;62385;41.594;23.808;2023-03-18T00:33:56;95705.72;;;6.29;50.40
24160;BME280;62385;41.594;23.808;2023-03-18T00:36:21;95696.84;;;6.20;50.50
24160;BME280;62385;41.594;23.808;2023-03-18T00:39:08;95699.41;;;6.78;47.05
24160;BME280;62385;41.594;23.808;2023-03-18T00:41:35;95699.53;;;6.86;46.80
24160;BME280;62385;41.594;23.808;2023-03-18T00:44:02;95689.06;;;6.94;45.35
24160;BME280;62385;41.594;23.808;2023-03-18T00:46:31;95684.88;;;7.38;44.21
24160;BME280;62385;41.594;23.808;2023-03-18T00:49:00;95684.22;;;7.26;44.04
24160;BME280;62385;41.594;23.808;2023-03-18T00:51:29;95680.22;;;7.22;44.59
24160;BME280;62385;41.594;23.808;2023-03-18T00:53:58;95671.88;;;7.27;44.46
24160;BME280;62385;41.594;23.808;2023-03-18T00:56:28;95669.81;;;7.48;44.00
24160;BME280;62385;41.594;23.808;2023-03-18T00:58:56;95673.66;;;6.89;46.60
24160;BME280;62385;41.594;23.808;2023-03-18T01:01:25;95679.03;;;6.51;47.88
24160;BME280;62385;41.594;23.808;2023-03-18T01:03:51;95675.47;;;6.33;48.96
24160;BME280;62385;41.594;23.808;2023-03-18T01:06:22;95677.22;;;6.42;49.15
24160;BME280;62385;41.594;23.808;2023-03-18T01:08:49;95674.28;;;6.55;48.74
24160;BME280;62385;41.594;23.808;2023-03-18T01:11:15;95662.69;;;6.94;47.84
24160;BME280;62385;41.594;23.808;2023-03-18T01:13:41;95667.66;;;6.97;49.24
24160;BME280;62385;41.594;23.808;2023-03-18T01:16:08;95666.16;;;6.94;48.93
24160;BME280;62385;41.594;23.808;2023-03-18T01:18:35;95664.56;;;7.11;48.08
24160;BME280;62385;41.594;23.808;2023-03-18T01:21:02;95654.41;;;7.16;45.43
24160;BME280;62385;41.594;23.808;2023-03-18T01:23:32;95663.47;;;7.04;45.77
24160;BME280;62385;41.594;23.808;2023-03-18T01:25:57;95663.44;;;7.14;45.09
24160;BME280;62385;41.594;23.808;2023-03-18T01:28:24;95660.06;;;6.84;45.42
24160;BME280;62385;41.594;23.808;2023-03-18T01:30:52;95667.41;;;6.06;49.04
24160;BME280;62385;41.594;23.808;2023-03-18T01:33:21;95665.97;;;5.73;49.57
24160;BME280;62385;41.594;23.808;2023-03-18T01:35:55;95662.28;;;5.35;52.42
24160;BME280;62385;41.594;23.808;2023-03-18T01:38:26;95651.81;;;5.45;51.90
24160;BME280;62385;41.594;23.808;2023-03-18T01:40:59;95665.34;;;5.31;52.45
24160;BME280;62385;41.594;23.808;2023-03-18T01:43:31;95650.16;;;5.53;52.05
24160;BME280;62385;41.594;23.808;2023-03-18T01:46:00;95657.78;;;5.76;50.37
24160;BME280;62385;41.594;23.808;2023-03-18T01:48:34;95654.09;;;5.19;51.98
24160;BME280;62385;41.594;23.808;2023-03-18T01:51:07;95658.66;;;5.17;52.58
24160;BME280;62385;41.594;23.808;2023-03-18T01:53:39;95651.91;;;5.34;51.78
24160;BME280;62385;41.594;23.808;2023-03-18T01:56:07;95659.31;;;5.09;52.35
24160;BME280;62385;41.594;23.808;2023-03-18T01:58:39;95666.56;;;5.17;52.62
24160;BME280;62385;41.594;23.808;2023-03-18T02:01:11;95660.31;;;5.18;52.37
24160;BME280;62385;41.594;23.808;2023-03-18T02:03:40;95664.03;;;4.76;53.67
24160;BME280;62385;41.594;23.808;2023-03-18T02:06:06;95663.00;;;4.97;53.76
24160;BME280;62385;41.594;23.808;2023-03-18T02:08:34;95666.97;;;4.82;53.01
24160;BME280;62385;41.594;23.808;2023-03-18T02:11:01;95664.16;;;5.14;52.12
24160;BME280;62385;41.594;23.808;2023-03-18T02:13:27;95667.25;;;5.19;51.80
24160;BME280;62385;41.594;23.808;2023-03-18T02:16:00;95671.50;;;5.10;51.75
24160;BME280;62385;41.594;23.808;2023-03-18T02:18:36;95660.75;;;4.93;52.22
24160;BME280;62385;41.594;23.808;2023-03-18T02:29:03;95669.44;;;4.33;55.01
24160;BME280;62385;41.594;23.808;2023-03-18T02:31:40;95672.06;;;4.33;54.54
24160;BME280;62385;41.594;23.808;2023-03-18T02:34:08;95665.41;;;4.49;54.55
24160;BME280;62385;41.594;23.808;2023-03-18T02:36:36;95667.53;;;4.55;54.31
24160;BME280;62385;41.594;23.808;2023-03-18T02:39:06;95657.75;;;4.97;53.03
24160;BME280;62385;41.594;23.808;2023-03-18T02:41:34;95647.38;;;4.65;53.25
24160;BME280;62385;41.594;23.808;2023-03-18T02:44:00;95661.78;;;4.71;53.59
24160;BME280;62385;41.594;23.808;2023-03-18T02:46:51;95666.84;;;4.93;53.70
24160;BME280;62385;41.594;23.808;2023-03-18T02:49:19;95663.88;;;5.07;53.55
24160;BME280;62385;41.594;23.808;2023-03-18T02:51:45;95666.75;;;4.95;54.26
24160;BME280;62385;41.594;23.808;2023-03-18T02:54:14;95664.44;;;4.81;54.30
24160;BME280;62385;41.594;23.808;2023-03-18T02:56:41;95658.78;;;4.85;54.51
24160;BME280;62385;41.594;23.808;2023-03-18T02:59:08;95658.22;;;4.82;54.56
24160;BME280;62385;41.594;23.808;2023-03-18T03:01:35;95667.72;;;4.63;55.12
24160;BME280;62385;41.594;23.808;2023-03-18T03:04:03;95663.41;;;4.93;53.70
24160;BME280;62385;41.594;23.808;2023-03-18T03:06:29;95663.84;;;4.68;54.53
24160;BME280;62385;41.594;23.808;2023-03-18T03:08:55;95660.84;;;4.82;54.48
24160;BME280;62385;41.594;23.808;2023-03-18T03:11:23;95669.88;;;4.58;55.35
24160;BME280;62385;41.594;23.808;2023-03-18T03:13:51;95665.47;;;4.59;55.60
24160;BME280;62385;41.594;23.808;2023-03-18T03:16:18;95665.66;;;4.67;55.42
24160;BME280;62385;41.594;23.808;2023-03-18T03:18:44;95668.88;;;4.50;55.67
24160;BME280;62385;41.594;23.808;2023-03-18T03:21:11;95669.91;;;4.38;56.37
24160;BME280;62385;41.594;23.808;2023-03-18T03:23:38;95655.47;;;4.32;55.91
24160;BME280;62385;41.594;23.808;2023-03-18T03:26:05;95663.47;;;4.31;56.12
24160;BME280;62385;41.594;23.808;2023-03-18T03:28:32;95663.38;;;3.80;57.60
24160;BME280;62385;41.594;23.808;2023-03-18T03:30:58;95672.47;;;3.76;58.25
24160;BME280;62385;41.594;23.808;2023-03-18T03:33:26;95676.88;;;3.75;58.42
24160;BME280;62385;41.594;23.808;2023-03-18T03:35:52;95673.69;;;3.60;58.36
24160;BME280;62385;41.594;23.808;2023-03-18T03:38:20;95670.16;;;3.82;57.73
24160;BME280;62385;41.594;23.808;2023-03-18T03:40:47;95678.38;;;3.89;57.61
24160;BME280;62385;41.594;23.808;2023-03-18T03:43:13;95674.25;;;3.75;57.88
24160;BME280;62385;41.594;23.808;2023-03-18T03:45:41;95678.47;;;3.66;58.02
24160;BME280;62385;41.594;23.808;2023-03-18T03:48:08;95681.44;;;3.62;58.58
24160;BME280;62385;41.594;23.808;2023-03-18T03:50:35;95684.69;;;3.54;58.59
24160;BME280;62385;41.594;23.808;2023-03-18T03:53:03;95684.28;;;3.70;58.45
24160;BME280;62385;41.594;23.808;2023-03-18T03:55:29;95687.72;;;3.82;58.09
24160;BME280;62385;41.594;23.808;2023-03-18T03:57:55;95677.06;;;4.15;57.58
24160;BME280;62385;41.594;23.808;2023-03-18T04:00:25;95677.03;;;3.94;57.94
24160;BME280;62385;41.594;23.808;2023-03-18T04:02:51;95672.53;;;4.17;58.14
24160;BME280;62385;41.594;23.808;2023-03-18T04:05:21;95670.22;;;4.24;57.24
24160;BME280;62385;41.594;23.808;2023-03-18T04:07:49;95682.41;;;4.25;57.88
24160;BME280;62385;41.594;23.808;2023-03-18T04:10:19;95671.34;;;4.51;56.92
24160;BME280;62385;41.594;23.808;2023-03-18T04:12:46;95674.97;;;4.50;57.04
24160;BME280;62385;41.594;23.808;2023-03-18T04:15:14;95673.28;;;4.49;56.80
24160;BME280;62385;41.594;23.808;2023-03-18T04:17:43;95683.56;;;5.13;55.09
24160;BME280;62385;41.594;23.808;2023-03-18T04:20:13;95673.50;;;5.28;54.60
24160;BME280;62385;41.594;23.808;2023-03-18T04:22:39;95685.72;;;4.98;56.50
24160;BME280;62385;41.594;23.808;2023-03-18T04:25:08;95684.88;;;4.98;56.62
24160;BME280;62385;41.594;23.808;2023-03-18T04:27:35;95683.31;;;4.86;57.35
24160;BME280;62385;41.594;23.808;2023-03-18T04:30:07;95677.47;;;4.82;57.07
24160;BME280;62385;41.594;23.808;2023-03-18T04:32:41;95685.56;;;4.70;57.45
24160;BME280;62385;41.594;23.808;2023-03-18T04:35:08;95687.78;;;4.95;56.08
24160;BME280;62385;41.594;23.808;2023-03-18T04:37:33;95684.69;;;5.20;55.76
24160;BME280;62385;41.594;23.808;2023-03-18T04:40:01;95685.38;;;5.13;56.76
24160;BME280;62385;41.594;23.808;2023-03-18T04:42:28;95687.47;;;5.19;56.44
24160;BME280;62385;41.594;23.808;2023-03-18T04:44:53;95690.19;;;5.47;55.86
24160;BME280;62385;41.594;23.808;2023-03-18T04:47:19;95686.78;;;5.66;56.54
24160;BME280;62385;41.594;23.808;2023-03-18T04:49:48;95686.22;;;5.72;58.66
24160;BME280;62385;41.594;23.808;2023-03-18T04:52:13;95684.56;;;5.81;58.54
24160;BME280;62385;41.594;23.808;2023-03-18T04:54:39;95688.88;;;5.82;59.00
24160;BME280;62385;41.594;23.808;2023-03-18T04:57:07;95687.72;;;5.65;58.02
24160;BME280;62385;41.594;23.808;2023-03-18T04:59:37;95696.16;;;5.49;57.01
24160;BME280;62385;41.594;23.808;2023-03-18T05:02:05;95691.97;;;5.47;56.71
24160;BME280;62385;41.594;23.808;2023-03-18T05:04:32;95698.69;;;5.80;55.77
24160;BME280;62385;41.594;23.808;2023-03-18T05:06:59;95695.44;;;6.16;55.93
24160;BME280;62385;41.594;23.808;2023-03-18T05:09:30;95691.28;;;6.23;54.85
24160;BME280;62385;41.594;23.808;2023-03-18T05:11:57;95696.97;;;6.28;55.29
24160;BME280;62385;41.594;23.808;2023-03-18T05:14:28;95694.88;;;6.32;54.68
24160;BME280;62385;41.594;23.808;2023-03-18T05:16:54;95698.47;;;6.31;56.91
24160;BME280;62385;41.594;23.808;2023-03-18T05:19:20;95705.44;;;6.13;58.05
24160;BME280;62385;41.594;23.808;2023-03-18T05:21:57;95706.13;;;6.15;58.14
24160;BME280;62385;41.594;23.808;2023-03-18T05:24:23;95707.38;;;6.20;57.61
24160;BME280;62385;41.594;23.808;2023-03-18T05:26:49;95704.31;;;6.34;56.19
24160;BME280;62385;41.594;23.808;2023-03-18T05:29:33;95709.03;;;6.40;56.10
24160;BME280;62385;41.594;23.808;2023-03-18T05:32:10;95717.94;;;6.20;55.21
24160;BME280;62385;41.594;23.808;2023-03-18T05:34:38;95716.25;;;6.00;55.17
24160;BME280;62385;41.594;23.808;2023-03-18T05:37:07;95712.47;;;6.50;54.00
24160;BME280;62385;41.594;23.808;2023-03-18T05:39:37;95714.69;;;6.65;52.84
24160;BME280;62385;41.594;23.808;2023-03-18T05:42:08;95712.41;;;6.89;52.69
24160;BME280;62385;41.594;23.808;2023-03-18T05:44:34;95716.19;;;6.77;52.17
24160;BME280;62385;41.594;23.808;2023-03-18T05:47:01;95722.44;;;6.85;52.10
24160;BME280;62385;41.594;23.808;2023-03-18T05:49:39;95717.69;;;6.89;51.25
24160;BME280;62385;41.594;23.808;2023-03-18T05:52:15;95725.91;;;6.86;52.06
24160;BME280;62385;41.594;23.808;2023-03-18T05:54:44;95728.53;;;6.95;51.09
24160;BME280;62385;41.594;23.808;2023-03-18T05:57:11;95728.06;;;7.00;51.45
24160;BME280;62385;41.594;23.808;2023-03-18T05:59:38;95720.03;;;7.02;51.55
24160;BME280;62385;41.594;23.808;2023-03-18T06:02:04;95725.00;;;7.14;51.58
24160;BME280;62385;41.594;23.808;2023-03-18T06:04:30;95728.72;;;7.21;51.16
24160;BME280;62385;41.594;23.808;2023-03-18T06:06:56;95729.94;;;7.36;51.25
24160;BME280;62385;41.594;23.808;2023-03-18T06:09:23;95725.22;;;7.21;52.85
24160;BME280;62385;41.594;23.808;2023-03-18T06:11:51;95720.25;;;7.18;54.59
24160;BME280;62385;41.594;23.808;2023-03-18T06:14:17;95721.53;;;7.14;54.39
24160;BME280;62385;41.594;23.808;2023-03-18T06:17:01;95725.75;;;7.34;53.47
24160;BME280;62385;41.594;23.808;2023-03-18T06:19:27;95726.16;;;7.39;53.37
24160;BME280;62385;41.594;23.808;2023-03-18T06:21:55;95730.09;;;7.25;52.98
24160;BME280;62385;41.594;23.808;2023-03-18T06:24:21;95728.88;;;7.20;53.61
24160;BME280;62385;41.594;23.808;2023-03-18T06:26:47;95724.66;;;7.27;52.26
24160;BME280;62385;41.594;23.808;2023-03-18T06:29:14;95720.31;;;7.45;52.40
24160;BME280;62385;41.594;23.808;2023-03-18T06:31:40;95727.53;;;7.43;53.45
24160;BME280;62385;41.594;23.808;2023-03-18T06:34:09;95720.53;;;7.52;53.30
24160;BME280;62385;41.594;23.808;2023-03-18T06:36:37;95716.22;;;7.51;52.77
24160;BME280;62385;41.594;23.808;2023-03-18T06:39:07;95713.94;;;7.83;52.56
24160;BME280;62385;41.594;23.808;2023-03-18T06:41:35;95719.16;;;7.75;52.99
24160;BME280;62385;41.594;23.808;2023-03-18T06:44:17;95713.59;;;7.96;53.26
24160;BME280;62385;41.594;23.808;2023-03-18T06:46:44;95703.19;;;7.94;52.60
24160;BME280;62385;41.594;23.808;2023-03-18T06:49:11;95711.88;;;8.04;52.64
24160;BME280;62385;41.594;23.808;2023-03-18T06:51:43;95702.28;;;8.21;51.26
24160;BME280;62385;41.594;23.808;2023-03-18T06:54:09;95698.78;;;8.48;50.83
24160;BME280;62385;41.594;23.808;2023-03-18T06:56:35;95708.38;;;8.31;50.23
24160;BME280;62385;41.594;23.808;2023-03-18T06:59:11;95710.03;;;7.87;49.38
24160;BME280;62385;41.594;23.808;2023-03-18T07:01:38;95708.66;;;7.83;48.80
24160;BME280;62385;41.594;23.808;2023-03-18T07:04:03;95710.13;;;7.95;49.29
24160;BME280;62385;41.594;23.808;2023-03-18T07:06:32;95713.69;;;8.21;47.10
24160;BME280;62385;41.594;23.808;2023-03-18T07:08:59;95698.91;;;8.11;46.09
24160;BME280;62385;41.594;23.808;2023-03-18T07:11:27;95699.75;;;8.29;46.28
24160;BME280;62385;41.594;23.808;2023-03-18T07:13:53;95700.44;;;8.49;45.20
24160;BME280;62385;41.594;23.808;2023-03-18T07:16:31;95694.53;;;9.32;43.70
24160;BME280;62385;41.594;23.808;2023-03-18T07:18:57;95702.09;;;8.50;44.59
24160;BME280;62385;41.594;23.808;2023-03-18T07:21:24;95703.19;;;8.12;45.81
24160;BME280;62385;41.594;23.808;2023-03-18T07:23:49;95702.50;;;8.80;44.68
24160;BME280;62385;41.594;23.808;2023-03-18T07:26:16;95687.09;;;9.27;42.82
24160;BME280;62385;41.594;23.808;2023-03-18T07:28:42;95700.44;;;9.18;42.96
24160;BME280;62385;41.594;23.808;2023-03-18T07:31:08;95699.75;;;9.16;43.24
24160;BME280;62385;41.594;23.808;2023-03-18T07:33:34;95690.75;;;9.35;42.94
24160;BME280;62385;41.594;23.808;2023-03-18T07:36:00;95695.75;;;9.12;43.66
24160;BME280;62385;41.594;23.808;2023-03-18T07:38:26;95691.47;;;9.11;42.70
24160;BME280;62385;41.594;23.808;2023-03-18T07:40:51;95701.63;;;8.54;43.63
24160;BME280;62385;41.594;23.808;2023-03-18T07:43:18;95702.16;;;9.01;43.59
24160;BME280;62385;41.594;23.808;2023-03-18T07:45:44;95702.09;;;8.93;43.19
24160;BME280;62385;41.594;23.808;2023-03-18T07:48:10;95693.09;;;9.46;41.86
24160;BME280;62385;41.594;23.808;2023-03-18T07:50:35;95683.59;;;10.19;41.33
24160;BME280;62385;41.594;23.808;2023-03-18T07:53:02;95677.16;;;10.54;40.86
24160;BME280;62385;41.594;23.808;2023-03-18T07:55:28;95678.97;;;10.78;41.33
24160;BME280;62385;41.594;23.808;2023-03-18T07:57:54;95677.63;;;10.90;40.56
24160;BME280;62385;41.594;23.808;2023-03-18T08:00:20;95674.44;;;11.02;40.91
24160;BME280;62385;41.594;23.808;2023-03-18T08:02:46;95682.69;;;10.10;41.83
24160;BME280;62385;41.594;23.808;2023-03-18T08:05:12;95675.66;;;10.92;41.34
24160;BME280;62385;41.594;23.808;2023-03-18T08:07:38;95669.19;;;10.78;41.92
24160;BME280;62385;41.594;23.808;2023-03-18T08:10:05;95682.88;;;10.01;45.46
24160;BME280;62385;41.594;23.808;2023-03-18T08:12:31;95672.00;;;10.52;45.10
24160;BME280;62385;41.594;23.808;2023-03-18T08:14:57;95684.66;;;9.92;46.32
24160;BME280;62385;41.594;23.808;2023-03-18T08:17:24;95681.28;;;10.48;45.40
24160;BME280;62385;41.594;23.808;2023-03-18T08:19:49;95680.56;;;10.06;47.04
24160;BME280;62385;41.594;23.808;2023-03-18T08:22:15;95691.94;;;9.90;47.48
24160;BME280;62385;41.594;23.808;2023-03-18T08:24:41;95691.66;;;9.93;47.98
24160;BME280;62385;41.594;23.808;2023-03-18T08:27:07;95691.91;;;10.32;46.42
24160;BME280;62385;41.594;23.808;2023-03-18T08:29:34;95686.34;;;9.93;47.14
24160;BME280;62385;41.594;23.808;2023-03-18T08:31:59;95693.53;;;10.17;46.60
24160;BME280;62385;41.594;23.808;2023-03-18T08:34:25;95673.00;;;10.35;46.17
24160;BME280;62385;41.594;23.808;2023-03-18T08:36:51;95665.38;;;10.48;46.96
24160;BME280;62385;41.594;23.808;2023-03-18T08:39:17;95686.72;;;10.14;47.67
24160;BME280;62385;41.594;23.808;2023-03-18T08:41:42;95678.13;;;10.29;46.35
24160;BME280;62385;41.594;23.808;2023-03-18T08:44:08;95680.63;;;10.30;46.52
24160;BME280;62385;41.594;23.808;2023-03-18T08:46:37;95683.09;;;10.24;46.80
24160;BME280;62385;41.594;23.808;2023-03-18T08:49:03;95688.59;;;10.30;45.93
24160;BME280;62385;41.594;23.808;2023-03-18T08:51:28;95676.47;;;10.52;45.44
24160;BME280;62385;41.594;23.808;2023-03-18T08:53:54;95674.16;;;10.41;45.52
24160;BME280;62385;41.594;23.808;2023-03-18T08:56:20;95693.41;;;10.18;45.85
24160;BME280;62385;41.594;23.808;2023-03-18T08:58:46;95684.28;;;10.53;44.80
24160;BME280;62385;41.594;23.808;2023-03-18T09:01:13;95684.97;;;10.63;43.49
24160;BME280;62385;41.594;23.808;2023-03-18T09:03:38;95681.81;;;10.60;43.18
24160;BME280;62385;41.594;23.808;2023-03-18T09:06:05;95678.00;;;10.62;44.29
24160;BME280;62385;41.594;23.808;2023-03-18T09:08:30;95681.81;;;10.68;43.11
24160;BME280;62385;41.594;23.808;2023-03-18T09:10:57;95693.56;;;10.57;43.58
24160;BME280;62385;41.594;23.808;2023-03-18T09:13:23;95687.78;;;10.62;44.14
24160;BME280;62385;41.594;23.808;2023-03-18T09:15:49;95685.56;;;11.06;42.55
24160;BME280;62385;41.594;23.808;2023-03-18T09:18:16;95686.88;;;11.10;42.54
24160;BME280;62385;41.594;23.808;2023-03-18T09:20:43;95687.94;;;10.85;41.88
24160;BME280;62385;41.594;23.808;2023-03-18T09:23:11;95687.72;;;11.10;42.10
24160;BME280;62385;41.594;23.808;2023-03-18T09:25:37;95683.94;;;10.97;42.13
24160;BME280;62385;41.594;23.808;2023-03-18T09:28:03;95684.75;;;10.89;41.38
24160;BME280;62385;41.594;23.808;2023-03-18T09:30:30;95682.38;;;11.27;40.51
24160;BME280;62385;41.594;23.808;2023-03-18T09:32:56;95691.75;;;10.90;40.88
24160;BME280;62385;41.594;23.808;2023-03-18T09:35:22;95686.09;;;10.93;39.83
24160;BME280;62385;41.594;23.808;2023-03-18T09:37:48;95679.75;;;11.02;40.34
24160;BME280;62385;41.594;23.808;2023-03-18T09:40:37;95680.63;;;10.71;41.24
24160;BME280;62385;41.594;23.808;2023-03-18T09:48:33;95683.28;;;10.95;39.96
24160;BME280;62385;41.594;23.808;2023-03-18T09:51:14;95680.13;;;10.83;40.53
24160;BME280;62385;41.594;23.808;2023-03-18T09:54:07;95680.63;;;10.87;39.47
24160;BME280;62385;41.594;23.808;2023-03-18T09:56:37;95677.00;;;10.72;39.71
24160;BME280;62385;41.594;23.808;2023-03-18T09:59:19;95679.81;;;10.70;41.20
24160;BME280;62385;41.594;23.808;2023-03-18T10:01:52;95672.84;;;10.69;39.73
24160;BME280;62385;41.594;23.808;2023-03-18T10:04:27;95678.16;;;10.53;40.10
24160;BME280;62385;41.594;23.808;2023-03-18T10:07:02;95672.19;;;10.27;39.27
24160;BME280;62385;41.594;23.808;2023-03-18T10:09:35;95684.28;;;10.45;39.52
24160;BME280;62385;41.594;23.808;2023-03-18T10:17:44;95682.13;;;10.41;39.49
24160;BME280;62385;41.594;23.808;2023-03-18T10:20:19;95682.63;;;10.52;39.84
24160;BME280;62385;41.594;23.808;2023-03-18T10:25:34;95681.97;;;10.50;39.27
24160;BME280;62385;41.594;23.808;2023-03-18T10:36:04;95664.81;;;11.18;37.77
24160;BME280;62385;41.594;23.808;2023-03-18T10:38:36;95662.09;;;11.34;37.34
24160;BME280;62385;41.594;23.808;2023-03-18T10:41:21;95663.94;;;11.33;37.40
24160;BME280;62385;41.594;23.808;2023-03-18T10:43:49;95661.16;;;11.10;37.75
24160;BME280;62385;41.594;23.808;2023-03-18T10:46:18;95657.47;;;11.75;37.34
24160;BME280;62385;41.594;23.808;2023-03-18T10:49:16;95650.81;;;11.32;36.77
24160;BME280;62385;41.594;23.808;2023-03-18T10:51:45;95645.63;;;11.46;36.30
24160;BME280;62385;41.594;23.808;2023-03-18T10:54:14;95652.56;;;11.94;36.17
24160;BME280;62385;41.594;23.808;2023-03-18T10:56:44;95646.09;;;11.89;36.30
24160;BME280;62385;41.594;23.808;2023-03-18T10:59:14;95649.56;;;11.58;35.80
24160;BME280;62385;41.594;23.808;2023-03-18T11:01:45;95644.94;;;10.81;37.40
24160;BME280;62385;41.594;23.808;2023-03-18T11:04:14;95649.72;;;10.94;37.20
24160;BME280;62385;41.594;23.808;2023-03-18T11:06:45;95632.13;;;11.48;36.56
24160;BME280;62385;41.594;23.808;2023-03-18T11:09:18;95635.75;;;11.08;36.42
24160;BME280;62385;41.594;23.808;2023-03-18T11:12:14;95634.53;;;11.27;36.83
24160;BME280;62385;41.594;23.808;2023-03-18T11:14:46;95640.56;;;11.13;36.57
24160;BME280;62385;41.594;23.808;2023-03-18T11:17:26;95639.84;;;11.27;36.42
24160;BME280;62385;41.594;23.808;2023-03-18T11:20:19;95636.09;;;11.52;36.39
24160;BME280;62385;41.594;23.808;2023-03-18T11:22:49;95634.47;;;11.51;37.33
24160;BME280;62385;41.594;23.808;2023-03-18T11:25:19;95629.22;;;11.66;36.51
24160;BME280;62385;41.594;23.808;2023-03-18T11:27:50;95622.53;;;11.39;36.62
24160;BME280;62385;41.594;23.808;2023-03-18T11:30:27;95619.09;;;11.30;37.59
24160;BME280;62385;41.594;23.808;2023-03-18T11:33:14;95623.78;;;11.59;37.26
24160;BME280;62385;41.594;23.808;2023-03-18T11:35:57;95611.97;;;11.15;37.09
24160;BME280;62385;41.594;23.808;2023-03-18T11:38:30;95608.72;;;12.13;37.04
24160;BME280;62385;41.594;23.808;2023-03-18T11:43:34;95612.63;;;11.94;38.49
24160;BME280;62385;41.594;23.808;2023-03-18T11:46:03;95610.94;;;11.71;38.82
24160;BME280;62385;41.594;23.808;2023-03-18T11:48:35;95606.97;;;11.67;38.44
24160;BME280;62385;41.594;23.808;2023-03-18T11:56:44;95589.09;;;11.14;38.10
24160;BME280;62385;41.594;23.808;2023-03-18T12:41:02;95570.94;;;12.10;35.98
24160;BME280;62385;41.594;23.808;2023-03-18T12:43:42;95569.50;;;11.45;36.53
24160;BME280;62385;41.594;23.808;2023-03-18T12:46:35;95576.22;;;11.64;36.51
24160;BME280;62385;41.594;23.808;2023-03-18T12:49:11;95576.97;;;11.81;36.46
24160;BME280;62385;41.594;23.808;2023-03-18T12:52:03;95574.28;;;11.58;36.01
24160;BME280;62385;41.594;23.808;2023-03-18T12:54:58;95573.28;;;11.59;35.85
24160;BME280;62385;41.594;23.808;2023-03-18T13:00:00;95569.72;;;11.75;35.94
24160;BME280;62385;41.594;23.808;2023-03-18T13:07:53;95559.84;;;12.29;34.96
24160;BME280;62385;41.594;23.808;2023-03-18T13:10:27;95548.91;;;13.05;33.14
24160;BME280;62385;41.594;23.808;2023-03-18T13:12:58;95555.50;;;12.80;34.56
24160;BME280;62385;41.594;23.808;2023-03-18T13:15:50;95545.94;;;12.56;32.09
24160;BME280;62385;41.594;23.808;2023-03-18T13:18:28;95553.78;;;12.35;29.48
24160;BME280;62385;41.594;23.808;2023-03-18T13:20:57;95554.34;;;12.08;27.47
24160;BME280;62385;41.594;23.808;2023-03-18T13:29:27;95568.00;;;11.51;26.98
24160;BME280;62385;41.594;23.808;2023-03-18T13:32:37;95585.53;;;11.29;27.36
24160;BME280;62385;41.594;23.808;2023-03-18T13:38:07;95565.31;;;11.20;27.60
24160;BME280;62385;41.594;23.808;2023-03-18T13:43:04;95578.59;;;10.57;26.81
24160;BME280;62385;41.594;23.808;2023-03-18T13:45:39;95570.78;;;11.19;27.01
24160;BME280;62385;41.594;23.808;2023-03-18T13:48:11;95557.06;;;11.77;26.66
24160;BME280;62385;41.594;23.808;2023-03-18T13:50:43;95578.00;;;11.41;26.66
24160;BME280;62385;41.594;23.808;2023-03-18T13:53:37;95567.94;;;11.59;26.45
24160;BME280;62385;41.594;23.808;2023-03-18T13:56:06;95565.69;;;11.79;26.08
24160;BME280;62385;41.594;23.808;2023-03-18T13:58:50;95557.03;;;12.45;25.95
24160;BME280;62385;41.594;23.808;2023-03-18T14:01:26;95560.69;;;11.06;26.97
24160;BME280;62385;41.594;23.808;2023-03-18T14:04:18;95567.81;;;10.58;27.97
24160;BME280;62385;41.594;23.808;2023-03-18T14:07:33;95565.97;;;11.14;28.04
24160;BME280;62385;41.594;23.808;2023-03-18T14:09:52;95573.44;;;11.57;26.77
24160;BME280;62385;41.594;23.808;2023-03-18T14:17:43;95565.53;;;12.92;25.15
24160;BME280;62385;41.594;23.808;2023-03-18T14:22:41;95579.22;;;11.61;26.79
24160;BME280;62385;41.594;23.808;2023-03-18T14:27:53;95567.47;;;12.46;26.28
24160;BME280;62385;41.594;23.808;2023-03-18T14:30:47;95582.31;;;12.03;26.51
24160;BME280;62385;41.594;23.808;2023-03-18T14:35:59;95560.50;;;12.08;26.57
24160;BME280;62385;41.594;23.808;2023-03-18T14:40:59;95571.06;;;11.93;27.60
24160;BME280;62385;41.594;23.808;2023-03-18T14:43:34;95581.72;;;11.63;28.09
24160;BME280;62385;41.594;23.808;2023-03-18T14:46:04;95574.47;;;11.87;27.74
24160;BME280;62385;41.594;23.808;2023-03-18T14:48:33;95576.00;;;12.94;26.44
24160;BME280;62385;41.594;23.808;2023-03-18T14:51:04;95576.16;;;13.15;26.52
24160;BME280;62385;41.594;23.808;2023-03-18T14:54:04;95584.66;;;12.96;26.83
24160;BME280;62385;41.594;23.808;2023-03-18T14:56:38;95572.94;;;12.68;27.32
24160;BME280;62385;41.594;23.808;2023-03-18T14:59:05;95580.19;;;13.11;26.58
24160;BME280;62385;41.594;23.808;2023-03-18T15:01:37;95590.22;;;11.58;28.06
24160;BME280;62385;41.594;23.808;2023-03-18T15:04:04;95576.03;;;12.19;26.95
24160;BME280;62385;41.594;23.808;2023-03-18T15:06:32;95578.41;;;12.14;26.74